Météo Nord-Pas-de-Calais   La météo au plus près de chez vous

Station météorologique

Observations météo à Chassiron (17323)

17323001 11 m Dernier relevé à 18:12
23.2°C
Humidité 78 % Vent 13 km/h 1023 hPa

Journée consultée

Samedi 5 Septembre 2026

Synthèse de la journée

Périodes de référence en UTC

Température maximale

24.7°C

à 16:18

06h 06h

Température minimale

19.7°C

à 07:06

18h 18h

Rafale maximale

30 km/h

à 03:36

00h 00h

Précipitations

0 mm

Cumul quotidien

06h 06h

Graphiques de la journée

Heure locale Réduire

Données détaillées

Relevés météo

Pas de 6 minutes Afficher les relevés infra-horaires
Relevés météo détaillés à Chassiron pour le Samedi 5 Septembre 2026
Heure Température °C Point de rosée °C Humidité % Vent moyen (raf.), km/h Précipitations mm Pression hPa Nébulosité Octas
18:12 23.2 °C 20 °C 82 % 17 km/h (21 km/h) 0 mm0 mm 1022.4 hPa
18:06 23.2 °C 19.8 °C 81 % 16 km/h (21 km/h) 0 mm0 mm 1022.4 hPa
18:00 23.3 °C 19.9 °C 81 % 15 km/h (21 km/h) 0 mm0 mm 1022.4 hPa
17:54 23.5 °C 19.8 °C 80 % 13 km/h (19 km/h) 0 mm0 mm 1022.5 hPa
17:48 23.6 °C 19.7 °C 79 % 13 km/h (19 km/h) 0 mm0 mm 1022.7 hPa
17:42 23.6 °C 19.9 °C 80 % 13 km/h (19 km/h) 0 mm0 mm 1022.6 hPa
17:36 23.7 °C 19.8 °C 79 % 14 km/h (18 km/h) 0 mm0 mm 1022.8 hPa
17:30 23.8 °C 20.1 °C 80 % 13 km/h (18 km/h) 0 mm0 mm 1022.9 hPa
17:24 23.7 °C 19.8 °C 79 % 13 km/h (18 km/h) 0 mm0 mm 1022.8 hPa
17:18 23.8 °C 19.9 °C 79 % 13 km/h (18 km/h) 0 mm0 mm 1023 hPa
17:12 23.9 °C 19.8 °C 78 % 13 km/h (17 km/h) 0 mm0 mm 1023 hPa
17:06 23.8 °C 19.7 °C 78 % 13 km/h (17 km/h) 0 mm0 mm 1023.2 hPa
17:00 23.9 °C 19.8 °C 78 % 13 km/h (17 km/h) 0 mm0 mm 1023.4 hPa 2 Octas
16:54 23.9 °C 19.6 °C 77 % 12 km/h (17 km/h) 0 mm0 mm 1023.3 hPa
16:48 24 °C 19.7 °C 77 % 11 km/h (15 km/h) 0 mm0 mm 1023.3 hPa
16:42 24.1 °C 20 °C 78 % 12 km/h (17 km/h) 0 mm0 mm 1023.4 hPa
16:36 24.2 °C 20.1 °C 78 % 14 km/h (18 km/h) 0 mm0 mm 1023.4 hPa
16:30 24.3 °C 20 °C 77 % 13 km/h (18 km/h) 0 mm0 mm 1023.4 hPa
16:24 24.5 °C 20 °C 76 % 13 km/h (17 km/h) 0 mm0 mm 1023.6 hPa
16:18 24.7 °C 20 °C 75 % 11 km/h (14 km/h) 0 mm0 mm 1023.7 hPa
16:12 24.5 °C 19.8 °C 75 % 11 km/h (13 km/h) 0 mm0 mm 1023.8 hPa
16:06 24.4 °C 19.5 °C 74 % 11 km/h (14 km/h) 0 mm0 mm 1023.9 hPa
16:00 24.4 °C 19.5 °C 74 % 11 km/h (14 km/h) 0 mm0 mm 1023.8 hPa
15:54 24.5 °C 19.6 °C 74 % 10 km/h (15 km/h) 0 mm0 mm 1023.8 hPa
15:48 24.1 °C 19 °C 73 % 11 km/h (15 km/h) 0 mm0 mm 1023.8 hPa
15:42 24.5 °C 19.3 °C 73 % 10 km/h (13 km/h) 0 mm0 mm 1024 hPa
15:36 24.5 °C 19.8 °C 75 % 10 km/h (13 km/h) 0 mm0 mm 1024.2 hPa
15:30 24.1 °C 19.2 °C 74 % 9 km/h (13 km/h) 0 mm0 mm 1024.3 hPa
15:24 24.1 °C 19.2 °C 74 % 9 km/h (13 km/h) 0 mm0 mm 1024.2 hPa
15:18 24.1 °C 19.2 °C 74 % 9 km/h (13 km/h) 0 mm0 mm 1024.3 hPa
15:12 24.4 °C 19.7 °C 75 % 9 km/h (13 km/h) 0 mm0 mm 1024.4 hPa
15:06 24 °C 19.1 °C 74 % 8 km/h (11 km/h) 0 mm0 mm 1024.4 hPa
15:00 24.2 °C 19.5 °C 75 % 8 km/h (11 km/h) 0 mm0 mm 1024.3 hPa
14:54 24.1 °C 19.4 °C 75 % 9 km/h (12 km/h) 0 mm0 mm 1024.5 hPa
14:48 23.8 °C 19.1 °C 75 % 9 km/h (12 km/h) 0 mm0 mm 1024.5 hPa
14:42 23.9 °C 19 °C 74 % 9 km/h (13 km/h) 0 mm0 mm 1024.5 hPa
14:36 24 °C 19.1 °C 74 % 9 km/h (13 km/h) 0 mm0 mm 1024.6 hPa
14:30 24.1 °C 19.4 °C 75 % 10 km/h (14 km/h) 0 mm0 mm 1024.6 hPa
14:24 24 °C 19.1 °C 74 % 11 km/h (14 km/h) 0 mm0 mm 1024.6 hPa
14:18 23.9 °C 19 °C 74 % 11 km/h (14 km/h) 0 mm0 mm 1024.6 hPa
14:12 24 °C 18.6 °C 72 % 10 km/h (13 km/h) 0 mm0 mm 1024.7 hPa
14:06 24.3 °C 19.4 °C 74 % 8 km/h (12 km/h) 0 mm0 mm 1024.8 hPa
14:00 24.2 °C 18.6 °C 71 % 8 km/h (9 km/h) 0 mm0 mm 1024.9 hPa 5 Octas
13:54 24.2 °C 18.4 °C 70 % 7 km/h (9 km/h) 0 mm0 mm 1025 hPa
13:48 24.3 °C 18.7 °C 71 % 6 km/h (9 km/h) 0 mm0 mm 1025.1 hPa
13:42 24.1 °C 18.3 °C 70 % 6 km/h (8 km/h) 0 mm0 mm 1025.1 hPa
13:36 23.8 °C 17.8 °C 69 % 6 km/h (9 km/h) 0 mm0 mm 1025.2 hPa
13:30 23.9 °C 18.3 °C 71 % 6 km/h (9 km/h) 0 mm0 mm 1025.2 hPa
13:24 23.7 °C 17.9 °C 70 % 7 km/h (9 km/h) 0 mm0 mm 1025.2 hPa
13:18 23.9 °C 18.1 °C 70 % 8 km/h (12 km/h) 0 mm0 mm 1025.3 hPa
13:12 24.1 °C 18.3 °C 70 % 8 km/h (12 km/h) 0 mm0 mm 1025.3 hPa
13:06 24.1 °C 18.3 °C 70 % 6 km/h (10 km/h) 0 mm0 mm 1025.3 hPa
13:00 24 °C 18.4 °C 71 % 7 km/h (11 km/h) 0 mm0 mm 1025.4 hPa
12:54 24.1 °C 18.7 °C 72 % 7 km/h (10 km/h) 0 mm0 mm 1025.3 hPa
12:48 24.1 °C 18.7 °C 72 % 6 km/h (10 km/h) 0 mm0 mm 1025.5 hPa
12:42 24 °C 18.6 °C 72 % 6 km/h (11 km/h) 0 mm0 mm 1025.5 hPa
12:36 23.8 °C 18.9 °C 74 % 6 km/h (11 km/h) 0 mm0 mm 1025.5 hPa
12:30 23.7 °C 19 °C 75 % 6 km/h (9 km/h) 0 mm0 mm 1025.6 hPa
12:24 23.8 °C 19.3 °C 76 % 6 km/h (9 km/h) 0 mm0 mm 1025.6 hPa
12:18 23.4 °C 19.1 °C 77 % 5 km/h (10 km/h) 0 mm0 mm 1025.6 hPa
12:12 23.3 °C 19.2 °C 78 % 6 km/h (10 km/h) 0 mm0 mm 1025.6 hPa
12:06 23.3 °C 19 °C 77 % 6 km/h (9 km/h) 0 mm0 mm 1025.6 hPa
12:00 23.7 °C 19.4 °C 77 % 6 km/h (9 km/h) 0 mm0 mm 1025.6 hPa
11:54 23.3 °C 19.2 °C 78 % 6 km/h (9 km/h) 0 mm0 mm 1025.6 hPa
11:48 23.4 °C 19.3 °C 78 % 6 km/h (11 km/h) 0 mm0 mm 1025.5 hPa
11:42 23.2 °C 19.4 °C 79 % 8 km/h (13 km/h) 0 mm0 mm 1025.5 hPa
11:36 23 °C 19 °C 78 % 9 km/h (14 km/h) 0 mm0 mm 1025.4 hPa
11:30 22.9 °C 19.1 °C 79 % 10 km/h (15 km/h) 0 mm0 mm 1025.3 hPa
11:24 22.9 °C 19.3 °C 80 % 10 km/h (15 km/h) 0 mm0 mm 1025.3 hPa
11:18 23 °C 19.4 °C 80 % 9 km/h (15 km/h) 0 mm0 mm 1025.2 hPa
11:12 23 °C 19.6 °C 81 % 9 km/h (17 km/h) 0 mm0 mm 1025.1 hPa
11:06 22.6 °C 19.4 °C 82 % 10 km/h (17 km/h) 0 mm0 mm 1025.1 hPa
11:00 22.4 °C 19 °C 81 % 10 km/h (15 km/h) 0 mm0 mm 1025.1 hPa 5 Octas
10:54 22.5 °C 19.5 °C 83 % 9 km/h (15 km/h) 0 mm0 mm 1025.1 hPa
10:48 22.3 °C 19.5 °C 84 % 10 km/h (15 km/h) 0 mm0 mm 1025.1 hPa
10:42 22.3 °C 19.3 °C 83 % 9 km/h (15 km/h) 0 mm0 mm 1025.1 hPa
10:36 22.2 °C 19.4 °C 84 % 7 km/h (12 km/h) 0 mm0 mm 1025.1 hPa
10:30 22.3 °C 19.7 °C 85 % 7 km/h (12 km/h) 0 mm0 mm 1025.1 hPa
10:24 21.9 °C 19.5 °C 86 % 7 km/h (13 km/h) 0 mm0 mm 1025.1 hPa
10:18 21.8 °C 19.5 °C 87 % 8 km/h (12 km/h) 0 mm0 mm 1025 hPa
10:12 21.4 °C 19 °C 86 % 8 km/h (12 km/h) 0 mm0 mm 1025 hPa
10:06 21.6 °C 19.2 °C 86 % 9 km/h (13 km/h) 0 mm0 mm 1025 hPa
10:00 21.6 °C 19.3 °C 87 % 6 km/h (12 km/h) 0 mm0 mm 1024.9 hPa
09:54 21.5 °C 19.4 °C 88 % 6 km/h (9 km/h) 0 mm0 mm 1024.9 hPa
09:48 21.4 °C 19.3 °C 88 % 6 km/h (9 km/h) 0 mm0 mm 1024.8 hPa
09:42 21.1 °C 19.2 °C 89 % 6 km/h (11 km/h) 0 mm0 mm 1024.8 hPa
09:36 21.1 °C 19.4 °C 90 % 6 km/h (11 km/h) 0 mm0 mm 1024.8 hPa
09:30 20.8 °C 19.1 °C 90 % 6 km/h (11 km/h) 0 mm0 mm 1024.9 hPa
09:24 20.6 °C 18.9 °C 90 % 7 km/h (12 km/h) 0 mm0 mm 1024.9 hPa
09:18 20.6 °C 19.1 °C 91 % 8 km/h (12 km/h) 0 mm0 mm 1024.8 hPa
09:12 20.5 °C 18.8 °C 90 % 9 km/h (13 km/h) 0 mm0 mm 1024.8 hPa
09:06 20.5 °C 18.8 °C 90 % 12 km/h (16 km/h) 0 mm0 mm 1024.7 hPa
09:00 20.5 °C 18.8 °C 90 % 14 km/h (18 km/h) 0 mm0 mm 1024.6 hPa
08:54 20.4 °C 18.7 °C 90 % 13 km/h (18 km/h) 0 mm0 mm 1024.6 hPa
08:48 20.2 °C 18.5 °C 90 % 10 km/h (15 km/h) 0 mm0 mm 1024.5 hPa
08:42 20.2 °C 18.7 °C 91 % 10 km/h (13 km/h) 0 mm0 mm 1024.5 hPa
08:36 20.1 °C 18.8 °C 92 % 10 km/h (13 km/h) 0 mm0 mm 1024.5 hPa
08:30 20.1 °C 18.8 °C 92 % 10 km/h (14 km/h) 0 mm0 mm 1024.5 hPa
08:24 20 °C 18.8 °C 93 % 9 km/h (14 km/h) 0 mm0 mm 1024.4 hPa
08:18 20 °C 18.7 °C 92 % 7 km/h (13 km/h) 0 mm0 mm 1024.4 hPa
08:12 19.9 °C 18.6 °C 92 % 6 km/h (9 km/h) 0 mm0 mm 1024.3 hPa
08:06 19.9 °C 18.6 °C 92 % 6 km/h (10 km/h) 0 mm0 mm 1024.4 hPa
08:00 19.9 °C 18.6 °C 92 % 7 km/h (10 km/h) 0 mm0 mm 1024.2 hPa 5 Octas
07:54 19.9 °C 18.6 °C 92 % 8 km/h (11 km/h) 0 mm0 mm 1024.1 hPa
07:48 19.9 °C 18.6 °C 92 % 9 km/h (13 km/h) 0 mm0 mm 1024 hPa
07:42 19.8 °C 18.5 °C 92 % 11 km/h (14 km/h) 0 mm0 mm 1024 hPa
07:36 19.8 °C 18.5 °C 92 % 12 km/h (15 km/h) 0 mm0 mm 1023.9 hPa
07:30 19.8 °C 18.3 °C 91 % 11 km/h (15 km/h) 0 mm0 mm 1023.8 hPa
07:24 19.7 °C 18.2 °C 91 % 10 km/h (13 km/h) 0 mm0 mm 1023.8 hPa
07:18 19.8 °C 18.3 °C 91 % 11 km/h (13 km/h) 0 mm0 mm 1023.8 hPa
07:12 19.8 °C 18.3 °C 91 % 12 km/h (15 km/h) 0 mm0 mm 1023.8 hPa
07:06 19.7 °C 18.2 °C 91 % 12 km/h (15 km/h) 0 mm0 mm 1023.7 hPa
07:00 19.8 °C 18.3 °C 91 % 12 km/h (15 km/h) 0 mm0 mm 1023.7 hPa
06:54 19.9 °C 18.4 °C 91 % 13 km/h (18 km/h) 0 mm0 mm 1023.6 hPa
06:48 20 °C 18.5 °C 91 % 15 km/h (19 km/h) 0 mm0 mm 1023.7 hPa
06:42 20 °C 18.5 °C 91 % 16 km/h (21 km/h) 0 mm0 mm 1023.7 hPa
06:36 20.2 °C 18.7 °C 91 % 16 km/h (21 km/h) 0 mm0 mm 1023.7 hPa
06:30 20.3 °C 18.8 °C 91 % 15 km/h (19 km/h) 0 mm0 mm 1023.7 hPa
06:24 20.2 °C 18.7 °C 91 % 15 km/h (19 km/h) 0 mm0 mm 1023.8 hPa
06:18 20.1 °C 18.6 °C 91 % 17 km/h (23 km/h) 0 mm0 mm 1023.8 hPa
06:12 20.1 °C 18.6 °C 91 % 17 km/h (23 km/h) 0 mm0 mm 1023.7 hPa
06:06 20.1 °C 18.6 °C 91 % 15 km/h (19 km/h) 0 mm0 mm 1023.7 hPa
06:00 20 °C 18.5 °C 91 % 17 km/h (24 km/h) 0 mm0 mm 1023.7 hPa
05:54 19.9 °C 18.4 °C 91 % 18 km/h (24 km/h) 0 mm0 mm 1023.7 hPa
05:48 20 °C 18.7 °C 92 % 15 km/h (22 km/h) 0 mm0 mm 1023.7 hPa
05:42 20.1 °C 18.8 °C 92 % 16 km/h (22 km/h) 0 mm0 mm 1023.7 hPa
05:36 19.9 °C 18.4 °C 91 % 17 km/h (22 km/h) 0 mm0 mm 1023.7 hPa
05:30 20 °C 18.7 °C 92 % 18 km/h (23 km/h) 0 mm0 mm 1023.7 hPa
05:24 20 °C 18.7 °C 92 % 19 km/h (24 km/h) 0 mm0 mm 1023.7 hPa
05:18 20.2 °C 18.9 °C 92 % 20 km/h (28 km/h) 0 mm0 mm 1023.7 hPa
05:12 20.2 °C 18.9 °C 92 % 21 km/h (28 km/h) 0 mm0 mm 1023.8 hPa
05:06 20.2 °C 18.9 °C 92 % 21 km/h (28 km/h) 0 mm0 mm 1023.7 hPa
05:00 20.4 °C 19.1 °C 92 % 19 km/h (26 km/h) 0 mm0 mm 1023.7 hPa 6 Octas
04:54 20.6 °C 19.3 °C 92 % 17 km/h (23 km/h) 0 mm0 mm 1023.6 hPa
04:48 20.6 °C 19.3 °C 92 % 20 km/h (27 km/h) 0 mm0 mm 1023.6 hPa
04:42 20.4 °C 19.1 °C 92 % 18 km/h (25 km/h) 0 mm0 mm 1023.5 hPa
04:36 20.7 °C 19.4 °C 92 % 15 km/h (21 km/h) 0 mm0 mm 1023.5 hPa
04:30 20.8 °C 19.5 °C 92 % 14 km/h (18 km/h) 0 mm0 mm 1023.5 hPa
04:24 20.8 °C 19.5 °C 92 % 14 km/h (18 km/h) 0 mm0 mm 1023.5 hPa
04:18 20.8 °C 19.5 °C 92 % 15 km/h (19 km/h) 0 mm0 mm 1023.4 hPa
04:12 20.8 °C 19.5 °C 92 % 15 km/h (21 km/h) 0 mm0 mm 1023.3 hPa
04:06 20.8 °C 19.3 °C 91 % 14 km/h (21 km/h) 0 mm0 mm 1023.2 hPa
04:00 20.7 °C 19.2 °C 91 % 15 km/h (22 km/h) 0 mm0 mm 1023.2 hPa
03:54 20.6 °C 19.1 °C 91 % 18 km/h (25 km/h) 0 mm0 mm 1023.2 hPa
03:48 20.7 °C 19.2 °C 91 % 19 km/h (26 km/h) 0 mm0 mm 1023.1 hPa
03:42 20.6 °C 19.1 °C 91 % 21 km/h (27 km/h) 0 mm0 mm 1023.1 hPa
03:36 20.7 °C 19.4 °C 92 % 22 km/h (30 km/h) 0 mm0 mm 1023 hPa
03:30 20.7 °C 19.4 °C 92 % 22 km/h (27 km/h) 0 mm0 mm 1022.9 hPa
03:24 20.6 °C 19.3 °C 92 % 22 km/h (27 km/h) 0 mm0 mm 1022.8 hPa
03:18 20.7 °C 19.4 °C 92 % 22 km/h (27 km/h) 0 mm0 mm 1022.8 hPa
03:12 20.8 °C 19.5 °C 92 % 21 km/h (25 km/h) 0 mm0 mm 1022.8 hPa
03:06 20.8 °C 19.5 °C 92 % 21 km/h (25 km/h) 0 mm0 mm 1022.9 hPa
03:00 20.8 °C 19.5 °C 92 % 20 km/h (25 km/h) 0 mm0 mm 1022.9 hPa
02:54 20.8 °C 19.5 °C 92 % 19 km/h (24 km/h) 0 mm0 mm 1023 hPa
02:48 20.8 °C 19.5 °C 92 % 18 km/h (24 km/h) 0 mm0 mm 1023 hPa
02:42 20.8 °C 19.5 °C 92 % 18 km/h (24 km/h) 0 mm0 mm 1023.1 hPa
02:36 20.6 °C 19.3 °C 92 % 18 km/h (26 km/h) 0 mm0 mm 1023.1 hPa
02:30 20.6 °C 19.3 °C 92 % 19 km/h (26 km/h) 0 mm0 mm 1023 hPa
02:24 20.7 °C 19.4 °C 92 % 19 km/h (25 km/h) 0 mm0 mm 1023.1 hPa
02:18 20.7 °C 19.4 °C 92 % 20 km/h (25 km/h) 0 mm0 mm 1023 hPa
02:12 20.7 °C 19.4 °C 92 % 21 km/h (27 km/h) 0 mm0 mm 1022.9 hPa
02:06 20.7 °C 19.4 °C 92 % 22 km/h (27 km/h) 0 mm0 mm 1022.9 hPa
02:00 20.8 °C 19.5 °C 92 % 22 km/h (26 km/h) 0 mm0 mm 1022.9 hPa
01:54 20.7 °C 19.2 °C 91 % 22 km/h (26 km/h) 0 mm0 mm 1023 hPa
01:48 20.9 °C 19.6 °C 92 % 22 km/h (27 km/h) 0 mm0 mm 1022.8 hPa
01:42 20.8 °C 19.5 °C 92 % 24 km/h (30 km/h) 0 mm0 mm 1022.7 hPa
01:36 20.8 °C 19.5 °C 92 % 25 km/h (31 km/h) 0 mm0 mm 1022.7 hPa
01:30 20.7 °C 19.4 °C 92 % 26 km/h (31 km/h) 0 mm0 mm 1022.7 hPa
01:24 20.7 °C 19.4 °C 92 % 25 km/h (30 km/h) 0 mm0 mm 1022.7 hPa
01:18 20.7 °C 19.4 °C 92 % 22 km/h (28 km/h) 0 mm0 mm 1022.7 hPa
01:12 20.8 °C 19.5 °C 92 % 19 km/h (25 km/h) 0 mm0 mm 1022.8 hPa
01:06 20.7 °C 19.2 °C 91 % 20 km/h (25 km/h) 0 mm0 mm 1022.7 hPa
01:00 20.7 °C 19.2 °C 91 % 20 km/h (27 km/h) 0 mm0 mm 1022.6 hPa
00:54 20.8 °C 19.5 °C 92 % 22 km/h (27 km/h) 0 mm0 mm 1022.7 hPa
00:48 20.9 °C 19.6 °C 92 % 23 km/h (28 km/h) 0 mm0 mm 1022.6 hPa
00:42 20.9 °C 19.4 °C 91 % 22 km/h (28 km/h) 0 mm0 mm 1022.6 hPa
00:36 20.8 °C 19.3 °C 91 % 20 km/h (27 km/h) 0 mm0 mm 1022.7 hPa
00:30 20.8 °C 19.3 °C 91 % 21 km/h (27 km/h) 0 mm0 mm 1022.7 hPa
00:24 20.8 °C 19.3 °C 91 % 24 km/h (28 km/h) 0 mm0 mm 1022.6 hPa
00:18 20.7 °C 19.2 °C 91 % 26 km/h (30 km/h) 0 mm0 mm 1022.6 hPa
00:12 20.8 °C 19.3 °C 91 % 27 km/h (32 km/h) 0 mm0 mm 1022.7 hPa
00:06 20.8 °C 19.1 °C 90 % 28 km/h (35 km/h) 0 mm0 mm 1022.6 hPa
00:00 20.7 °C 19 °C 90 % 29 km/h (35 km/h) 0 mm0 mm 1022.7 hPa

Données via Météo-France

Relevés météo à Chassiron

Cette page rassemble les observations de la station de Chassiron : température, humidité, vent, précipitations et pression atmosphérique. Les graphiques facilitent le suivi de la journée, tandis que le tableau donne accès aux mesures horaires et infra-horaires disponibles.

Pour replacer ces mesures dans leur contexte, consultez la climatologie de Chassiron ainsi que ses normales et records. Retrouvez aussi la carte des observations météo en temps réel.